sensor_id;sensor_type;location;lat;lon;timestamp;temperature;humidity
18388;DHT22;9320;50.256;19.026;2023-02-15T00:01:58;6.50;94.60
18388;DHT22;9320;50.256;19.026;2023-02-15T00:04:28;6.30;94.40
18388;DHT22;9320;50.256;19.026;2023-02-15T00:07:14;6.10;94.80
18388;DHT22;9320;50.256;19.026;2023-02-15T00:09:43;6.30;94.80
18388;DHT22;9320;50.256;19.026;2023-02-15T00:12:12;6.20;95.20
18388;DHT22;9320;50.256;19.026;2023-02-15T00:14:40;6.30;94.70
18388;DHT22;9320;50.256;19.026;2023-02-15T00:17:08;6.40;94.90
18388;DHT22;9320;50.256;19.026;2023-02-15T00:19:38;6.30;95.10
18388;DHT22;9320;50.256;19.026;2023-02-15T00:22:07;6.40;94.80
18388;DHT22;9320;50.256;19.026;2023-02-15T00:24:35;6.10;95.00
18388;DHT22;9320;50.256;19.026;2023-02-15T00:27:03;6.10;95.10
18388;DHT22;9320;50.256;19.026;2023-02-15T00:29:31;6.20;95.60
18388;DHT22;9320;50.256;19.026;2023-02-15T00:31:59;6.10;95.30
18388;DHT22;9320;50.256;19.026;2023-02-15T00:34:27;6.10;95.10
18388;DHT22;9320;50.256;19.026;2023-02-15T00:36:57;6.10;95.30
18388;DHT22;9320;50.256;19.026;2023-02-15T00:39:25;5.90;95.40
18388;DHT22;9320;50.256;19.026;2023-02-15T00:41:54;5.90;95.50
18388;DHT22;9320;50.256;19.026;2023-02-15T00:44:21;6.00;95.50
18388;DHT22;9320;50.256;19.026;2023-02-15T00:46:49;5.90;95.30
18388;DHT22;9320;50.256;19.026;2023-02-15T00:49:17;6.10;95.50
18388;DHT22;9320;50.256;19.026;2023-02-15T00:51:45;6.20;95.10
18388;DHT22;9320;50.256;19.026;2023-02-15T00:54:15;6.20;95.40
18388;DHT22;9320;50.256;19.026;2023-02-15T00:56:43;6.10;94.90
18388;DHT22;9320;50.256;19.026;2023-02-15T00:59:11;5.80;95.60
18388;DHT22;9320;50.256;19.026;2023-02-15T01:01:39;6.00;96.00
18388;DHT22;9320;50.256;19.026;2023-02-15T01:04:07;6.20;95.80
18388;DHT22;9320;50.256;19.026;2023-02-15T01:06:35;6.30;95.20
18388;DHT22;9320;50.256;19.026;2023-02-15T01:09:03;6.20;95.00
18388;DHT22;9320;50.256;19.026;2023-02-15T01:11:32;6.20;95.60
18388;DHT22;9320;50.256;19.026;2023-02-15T01:14:00;6.20;95.10
18388;DHT22;9320;50.256;19.026;2023-02-15T01:16:29;6.10;95.10
18388;DHT22;9320;50.256;19.026;2023-02-15T01:18:57;6.20;95.40
18388;DHT22;9320;50.256;19.026;2023-02-15T01:21:26;6.20;95.30
18388;DHT22;9320;50.256;19.026;2023-02-15T01:23:54;6.20;95.80
18388;DHT22;9320;50.256;19.026;2023-02-15T01:26:22;6.30;95.10
18388;DHT22;9320;50.256;19.026;2023-02-15T01:28:51;6.30;95.20
18388;DHT22;9320;50.256;19.026;2023-02-15T01:31:20;6.30;95.50
18388;DHT22;9320;50.256;19.026;2023-02-15T01:33:49;6.40;95.40
18388;DHT22;9320;50.256;19.026;2023-02-15T01:36:17;6.40;94.80
18388;DHT22;9320;50.256;19.026;2023-02-15T01:38:45;6.10;94.90
18388;DHT22;9320;50.256;19.026;2023-02-15T01:41:13;5.90;95.90
18388;DHT22;9320;50.256;19.026;2023-02-15T01:43:52;5.90;96.20
18388;DHT22;9320;50.256;19.026;2023-02-15T01:46:24;6.00;95.80
18388;DHT22;9320;50.256;19.026;2023-02-15T01:48:56;6.20;95.60
18388;DHT22;9320;50.256;19.026;2023-02-15T01:51:29;6.00;95.30
18388;DHT22;9320;50.256;19.026;2023-02-15T01:54:02;6.00;96.00
18388;DHT22;9320;50.256;19.026;2023-02-15T01:56:33;6.10;96.20
18388;DHT22;9320;50.256;19.026;2023-02-15T01:59:07;6.10;96.00
18388;DHT22;9320;50.256;19.026;2023-02-15T02:01:37;6.10;96.00
18388;DHT22;9320;50.256;19.026;2023-02-15T02:04:11;6.20;95.90
18388;DHT22;9320;50.256;19.026;2023-02-15T02:06:44;6.10;96.20
18388;DHT22;9320;50.256;19.026;2023-02-15T02:09:14;6.10;96.20
18388;DHT22;9320;50.256;19.026;2023-02-15T02:11:45;6.20;96.20
18388;DHT22;9320;50.256;19.026;2023-02-15T02:14:15;6.00;96.20
18388;DHT22;9320;50.256;19.026;2023-02-15T02:16:49;6.00;96.60
18388;DHT22;9320;50.256;19.026;2023-02-15T02:19:37;6.00;96.60
18388;DHT22;9320;50.256;19.026;2023-02-15T02:22:39;5.80;96.80
18388;DHT22;9320;50.256;19.026;2023-02-15T02:28:33;6.00;96.70
18388;DHT22;9320;50.256;19.026;2023-02-15T02:31:31;5.80;97.20
18388;DHT22;9320;50.256;19.026;2023-02-15T02:34:12;6.00;97.30
18388;DHT22;9320;50.256;19.026;2023-02-15T02:36:49;6.10;97.00
18388;DHT22;9320;50.256;19.026;2023-02-15T02:39:26;5.70;97.00
18388;DHT22;9320;50.256;19.026;2023-02-15T02:42:04;5.40;98.50
18388;DHT22;9320;50.256;19.026;2023-02-15T02:44:40;5.40;98.90
18388;DHT22;9320;50.256;19.026;2023-02-15T02:47:13;5.50;98.60
18388;DHT22;9320;50.256;19.026;2023-02-15T02:49:45;5.30;99.00
18388;DHT22;9320;50.256;19.026;2023-02-15T02:52:35;5.50;99.20
18388;DHT22;9320;50.256;19.026;2023-02-15T02:55:06;5.60;98.60
18388;DHT22;9320;50.256;19.026;2023-02-15T02:57:37;5.20;99.10
18388;DHT22;9320;50.256;19.026;2023-02-15T03:00:09;5.10;99.90
18388;DHT22;9320;50.256;19.026;2023-02-15T03:02:40;5.10;99.90
18388;DHT22;9320;50.256;19.026;2023-02-15T03:05:15;5.10;99.90
18388;DHT22;9320;50.256;19.026;2023-02-15T03:07:46;5.20;99.90
18388;DHT22;9320;50.256;19.026;2023-02-15T03:10:18;5.20;99.90
18388;DHT22;9320;50.256;19.026;2023-02-15T03:12:48;5.00;99.90
18388;DHT22;9320;50.256;19.026;2023-02-15T03:15:19;5.10;99.90
18388;DHT22;9320;50.256;19.026;2023-02-15T03:17:57;4.70;99.90
18388;DHT22;9320;50.256;19.026;2023-02-15T03:20:33;4.70;99.90
18388;DHT22;9320;50.256;19.026;2023-02-15T03:23:05;4.70;99.90
18388;DHT22;9320;50.256;19.026;2023-02-15T03:25:37;5.00;99.90
18388;DHT22;9320;50.256;19.026;2023-02-15T03:28:09;5.00;99.90
18388;DHT22;9320;50.256;19.026;2023-02-15T03:30:40;5.00;99.90
18388;DHT22;9320;50.256;19.026;2023-02-15T03:33:10;4.90;99.90
18388;DHT22;9320;50.256;19.026;2023-02-15T03:35:45;4.90;99.90
18388;DHT22;9320;50.256;19.026;2023-02-15T03:38:20;5.00;99.90
18388;DHT22;9320;50.256;19.026;2023-02-15T03:40:53;4.90;99.90
18388;DHT22;9320;50.256;19.026;2023-02-15T03:43:47;4.80;99.90
18388;DHT22;9320;50.256;19.026;2023-02-15T03:46:21;4.60;99.90
18388;DHT22;9320;50.256;19.026;2023-02-15T03:48:53;4.70;99.90
18388;DHT22;9320;50.256;19.026;2023-02-15T03:51:26;4.70;99.90
18388;DHT22;9320;50.256;19.026;2023-02-15T03:54:02;4.60;99.90
18388;DHT22;9320;50.256;19.026;2023-02-15T03:56:31;4.50;99.90
18388;DHT22;9320;50.256;19.026;2023-02-15T03:59:00;4.70;99.90
18388;DHT22;9320;50.256;19.026;2023-02-15T04:01:52;4.90;99.90
18388;DHT22;9320;50.256;19.026;2023-02-15T04:04:33;4.90;99.90
18388;DHT22;9320;50.256;19.026;2023-02-15T04:07:04;5.10;99.90
18388;DHT22;9320;50.256;19.026;2023-02-15T04:09:33;5.00;99.90
18388;DHT22;9320;50.256;19.026;2023-02-15T04:12:18;4.80;99.90
18388;DHT22;9320;50.256;19.026;2023-02-15T04:14:46;4.70;99.90
18388;DHT22;9320;50.256;19.026;2023-02-15T04:17:31;4.70;99.90
18388;DHT22;9320;50.256;19.026;2023-02-15T04:19:59;4.80;99.90
18388;DHT22;9320;50.256;19.026;2023-02-15T04:22:46;5.10;99.90
18388;DHT22;9320;50.256;19.026;2023-02-15T04:25:32;5.10;99.90
18388;DHT22;9320;50.256;19.026;2023-02-15T04:28:00;5.10;99.90
18388;DHT22;9320;50.256;19.026;2023-02-15T04:30:28;5.10;99.90
18388;DHT22;9320;50.256;19.026;2023-02-15T04:32:56;4.60;99.90
18388;DHT22;9320;50.256;19.026;2023-02-15T04:35:24;4.70;99.90
18388;DHT22;9320;50.256;19.026;2023-02-15T04:37:53;4.90;99.90
18388;DHT22;9320;50.256;19.026;2023-02-15T04:40:22;5.00;99.90
18388;DHT22;9320;50.256;19.026;2023-02-15T04:42:50;5.10;99.90
18388;DHT22;9320;50.256;19.026;2023-02-15T04:45:18;5.10;99.90
18388;DHT22;9320;50.256;19.026;2023-02-15T04:47:46;5.10;99.90
18388;DHT22;9320;50.256;19.026;2023-02-15T04:50:14;4.90;99.90
18388;DHT22;9320;50.256;19.026;2023-02-15T04:52:42;5.00;99.90
18388;DHT22;9320;50.256;19.026;2023-02-15T04:55:11;4.90;99.90
18388;DHT22;9320;50.256;19.026;2023-02-15T04:57:40;4.90;99.90
18388;DHT22;9320;50.256;19.026;2023-02-15T05:00:09;4.80;99.90
18388;DHT22;9320;50.256;19.026;2023-02-15T05:02:37;4.70;99.90
18388;DHT22;9320;50.256;19.026;2023-02-15T05:05:06;4.50;99.90
18388;DHT22;9320;50.256;19.026;2023-02-15T05:07:36;4.40;99.90
18388;DHT22;9320;50.256;19.026;2023-02-15T05:10:04;4.30;99.90
18388;DHT22;9320;50.256;19.026;2023-02-15T05:12:34;4.40;99.90
18388;DHT22;9320;50.256;19.026;2023-02-15T05:15:02;4.40;99.90
18388;DHT22;9320;50.256;19.026;2023-02-15T05:17:30;4.50;99.90
18388;DHT22;9320;50.256;19.026;2023-02-15T05:19:58;4.60;99.90
18388;DHT22;9320;50.256;19.026;2023-02-15T05:22:26;4.80;99.90
18388;DHT22;9320;50.256;19.026;2023-02-15T05:24:54;4.60;99.90
18388;DHT22;9320;50.256;19.026;2023-02-15T05:27:41;4.50;99.90
18388;DHT22;9320;50.256;19.026;2023-02-15T05:30:26;4.60;99.90
18388;DHT22;9320;50.256;19.026;2023-02-15T05:32:55;4.80;99.90
18388;DHT22;9320;50.256;19.026;2023-02-15T05:35:23;4.80;99.90
18388;DHT22;9320;50.256;19.026;2023-02-15T05:37:51;4.90;99.90
18388;DHT22;9320;50.256;19.026;2023-02-15T05:40:19;4.60;99.90
18388;DHT22;9320;50.256;19.026;2023-02-15T05:42:48;4.60;99.90
18388;DHT22;9320;50.256;19.026;2023-02-15T05:45:16;4.50;99.90
18388;DHT22;9320;50.256;19.026;2023-02-15T05:47:45;4.20;99.90
18388;DHT22;9320;50.256;19.026;2023-02-15T05:50:13;4.10;99.90
18388;DHT22;9320;50.256;19.026;2023-02-15T05:52:41;4.20;99.90
18388;DHT22;9320;50.256;19.026;2023-02-15T05:55:09;4.40;99.90
18388;DHT22;9320;50.256;19.026;2023-02-15T05:57:37;4.60;99.90
18388;DHT22;9320;50.256;19.026;2023-02-15T06:00:07;4.70;99.90
18388;DHT22;9320;50.256;19.026;2023-02-15T06:02:37;4.50;99.90
18388;DHT22;9320;50.256;19.026;2023-02-15T06:05:06;4.50;99.90
18388;DHT22;9320;50.256;19.026;2023-02-15T06:07:35;4.40;99.90
18388;DHT22;9320;50.256;19.026;2023-02-15T06:10:04;4.30;99.90
18388;DHT22;9320;50.256;19.026;2023-02-15T06:12:32;4.40;99.90
18388;DHT22;9320;50.256;19.026;2023-02-15T06:15:00;4.60;99.90
18388;DHT22;9320;50.256;19.026;2023-02-15T06:17:29;4.80;99.90
18388;DHT22;9320;50.256;19.026;2023-02-15T06:19:57;4.90;99.90
18388;DHT22;9320;50.256;19.026;2023-02-15T06:22:25;5.00;99.90
18388;DHT22;9320;50.256;19.026;2023-02-15T06:24:53;4.80;99.90
18388;DHT22;9320;50.256;19.026;2023-02-15T06:27:21;4.80;99.90
18388;DHT22;9320;50.256;19.026;2023-02-15T06:29:49;4.90;99.90
18388;DHT22;9320;50.256;19.026;2023-02-15T06:32:17;4.50;99.90
18388;DHT22;9320;50.256;19.026;2023-02-15T06:34:47;4.60;99.90
18388;DHT22;9320;50.256;19.026;2023-02-15T06:37:15;4.40;99.90
18388;DHT22;9320;50.256;19.026;2023-02-15T06:39:43;4.30;99.90
18388;DHT22;9320;50.256;19.026;2023-02-15T06:42:11;4.20;99.90
18388;DHT22;9320;50.256;19.026;2023-02-15T06:44:39;4.10;99.90
18388;DHT22;9320;50.256;19.026;2023-02-15T06:47:07;4.40;99.90
18388;DHT22;9320;50.256;19.026;2023-02-15T06:49:36;4.70;99.90
18388;DHT22;9320;50.256;19.026;2023-02-15T06:52:05;4.60;99.90
18388;DHT22;9320;50.256;19.026;2023-02-15T06:54:33;4.30;99.90
18388;DHT22;9320;50.256;19.026;2023-02-15T06:57:02;4.30;99.90
18388;DHT22;9320;50.256;19.026;2023-02-15T06:59:30;4.30;99.90
18388;DHT22;9320;50.256;19.026;2023-02-15T07:01:58;4.50;99.90
18388;DHT22;9320;50.256;19.026;2023-02-15T07:04:26;4.60;99.90
18388;DHT22;9320;50.256;19.026;2023-02-15T07:06:55;4.70;99.90
18388;DHT22;9320;50.256;19.026;2023-02-15T07:09:25;4.70;99.90
18388;DHT22;9320;50.256;19.026;2023-02-15T07:11:53;4.40;99.90
18388;DHT22;9320;50.256;19.026;2023-02-15T07:14:38;4.50;99.90
18388;DHT22;9320;50.256;19.026;2023-02-15T07:17:07;4.70;99.90
18388;DHT22;9320;50.256;19.026;2023-02-15T07:19:55;4.80;99.90
18388;DHT22;9320;50.256;19.026;2023-02-15T07:22:24;5.00;99.90
18388;DHT22;9320;50.256;19.026;2023-02-15T07:24:54;5.00;99.90
18388;DHT22;9320;50.256;19.026;2023-02-15T07:27:23;5.00;99.90
18388;DHT22;9320;50.256;19.026;2023-02-15T07:29:51;5.00;99.90
18388;DHT22;9320;50.256;19.026;2023-02-15T07:32:20;5.10;99.90
18388;DHT22;9320;50.256;19.026;2023-02-15T07:34:48;5.40;99.90
18388;DHT22;9320;50.256;19.026;2023-02-15T07:37:17;5.40;99.90
18388;DHT22;9320;50.256;19.026;2023-02-15T07:39:45;5.40;99.90
18388;DHT22;9320;50.256;19.026;2023-02-15T07:42:15;5.50;99.90
18388;DHT22;9320;50.256;19.026;2023-02-15T07:44:44;5.20;99.90
18388;DHT22;9320;50.256;19.026;2023-02-15T07:47:12;5.30;99.90
18388;DHT22;9320;50.256;19.026;2023-02-15T07:49:41;5.40;99.90
18388;DHT22;9320;50.256;19.026;2023-02-15T07:52:09;5.30;99.90
18388;DHT22;9320;50.256;19.026;2023-02-15T07:54:37;5.50;99.90
18388;DHT22;9320;50.256;19.026;2023-02-15T07:57:05;5.60;99.90
18388;DHT22;9320;50.256;19.026;2023-02-15T07:59:34;5.70;99.90
18388;DHT22;9320;50.256;19.026;2023-02-15T08:02:02;6.00;99.90
18388;DHT22;9320;50.256;19.026;2023-02-15T08:04:30;5.60;99.90
18388;DHT22;9320;50.256;19.026;2023-02-15T08:06:58;5.30;99.90
18388;DHT22;9320;50.256;19.026;2023-02-15T08:09:27;5.10;99.90
18388;DHT22;9320;50.256;19.026;2023-02-15T08:11:55;5.30;99.90
18388;DHT22;9320;50.256;19.026;2023-02-15T08:14:23;5.40;99.90
18388;DHT22;9320;50.256;19.026;2023-02-15T08:16:54;5.60;99.90
18388;DHT22;9320;50.256;19.026;2023-02-15T08:19:24;5.80;99.90
18388;DHT22;9320;50.256;19.026;2023-02-15T08:21:55;5.70;99.90
18388;DHT22;9320;50.256;19.026;2023-02-15T08:24:25;6.10;99.90
18388;DHT22;9320;50.256;19.026;2023-02-15T08:26:54;6.10;99.90
18388;DHT22;9320;50.256;19.026;2023-02-15T08:29:24;6.10;99.90
18388;DHT22;9320;50.256;19.026;2023-02-15T08:31:55;6.40;99.90
18388;DHT22;9320;50.256;19.026;2023-02-15T08:34:25;6.30;99.90
18388;DHT22;9320;50.256;19.026;2023-02-15T08:36:54;6.50;99.90
18388;DHT22;9320;50.256;19.026;2023-02-15T08:39:22;6.70;99.90
18388;DHT22;9320;50.256;19.026;2023-02-15T08:41:50;6.90;99.90
18388;DHT22;9320;50.256;19.026;2023-02-15T08:44:19;7.00;99.90
18388;DHT22;9320;50.256;19.026;2023-02-15T08:46:48;6.90;99.90
18388;DHT22;9320;50.256;19.026;2023-02-15T08:49:19;7.00;99.30
18388;DHT22;9320;50.256;19.026;2023-02-15T08:51:48;6.90;98.70
18388;DHT22;9320;50.256;19.026;2023-02-15T08:54:19;6.90;99.90
18388;DHT22;9320;50.256;19.026;2023-02-15T08:56:48;7.00;99.00
18388;DHT22;9320;50.256;19.026;2023-02-15T08:59:18;6.90;98.60
18388;DHT22;9320;50.256;19.026;2023-02-15T09:01:47;6.80;98.50
18388;DHT22;9320;50.256;19.026;2023-02-15T09:04:17;6.40;99.60
18388;DHT22;9320;50.256;19.026;2023-02-15T09:06:46;6.40;99.60
18388;DHT22;9320;50.256;19.026;2023-02-15T09:09:15;5.90;99.90
18388;DHT22;9320;50.256;19.026;2023-02-15T09:11:45;5.80;99.90
18388;DHT22;9320;50.256;19.026;2023-02-15T09:14:16;5.70;99.90
18388;DHT22;9320;50.256;19.026;2023-02-15T09:16:47;5.70;99.90
18388;DHT22;9320;50.256;19.026;2023-02-15T09:19:21;5.80;99.90
18388;DHT22;9320;50.256;19.026;2023-02-15T09:21:49;6.00;99.90
18388;DHT22;9320;50.256;19.026;2023-02-15T09:24:18;6.10;99.90
18388;DHT22;9320;50.256;19.026;2023-02-15T09:26:47;6.00;99.90
18388;DHT22;9320;50.256;19.026;2023-02-15T09:29:17;6.10;99.90
18388;DHT22;9320;50.256;19.026;2023-02-15T09:31:46;6.20;99.90
18388;DHT22;9320;50.256;19.026;2023-02-15T09:34:17;6.20;99.90
18388;DHT22;9320;50.256;19.026;2023-02-15T09:36:47;6.30;99.90
18388;DHT22;9320;50.256;19.026;2023-02-15T09:39:17;6.20;99.90
18388;DHT22;9320;50.256;19.026;2023-02-15T09:45:01;6.40;99.90
18388;DHT22;9320;50.256;19.026;2023-02-15T09:50:38;6.30;99.90
18388;DHT22;9320;50.256;19.026;2023-02-15T09:53:33;6.50;99.90
18388;DHT22;9320;50.256;19.026;2023-02-15T09:56:09;6.40;99.90
18388;DHT22;9320;50.256;19.026;2023-02-15T09:58:47;6.10;99.90
18388;DHT22;9320;50.256;19.026;2023-02-15T10:01:27;6.30;99.90
18388;DHT22;9320;50.256;19.026;2023-02-15T10:04:13;6.50;99.90
18388;DHT22;9320;50.256;19.026;2023-02-15T10:06:51;6.70;99.90
18388;DHT22;9320;50.256;19.026;2023-02-15T10:09:35;6.80;99.60
18388;DHT22;9320;50.256;19.026;2023-02-15T10:12:26;6.90;99.10
18388;DHT22;9320;50.256;19.026;2023-02-15T10:15:19;7.00;99.00
18388;DHT22;9320;50.256;19.026;2023-02-15T10:18:07;7.00;99.20
18388;DHT22;9320;50.256;19.026;2023-02-15T10:20:44;6.90;98.70
18388;DHT22;9320;50.256;19.026;2023-02-15T10:23:31;7.10;98.40
18388;DHT22;9320;50.256;19.026;2023-02-15T10:26:10;7.10;98.30
18388;DHT22;9320;50.256;19.026;2023-02-15T10:28:45;7.20;98.00
18388;DHT22;9320;50.256;19.026;2023-02-15T10:31:22;7.30;97.60
18388;DHT22;9320;50.256;19.026;2023-02-15T10:34:14;7.40;97.10
18388;DHT22;9320;50.256;19.026;2023-02-15T10:37:08;7.50;96.60
18388;DHT22;9320;50.256;19.026;2023-02-15T10:39:48;7.60;96.40
18388;DHT22;9320;50.256;19.026;2023-02-15T10:42:30;8.00;96.20
18388;DHT22;9320;50.256;19.026;2023-02-15T10:45:11;8.60;93.70
18388;DHT22;9320;50.256;19.026;2023-02-15T10:47:55;8.70;94.20
18388;DHT22;9320;50.256;19.026;2023-02-15T10:50:32;8.80;93.10
18388;DHT22;9320;50.256;19.026;2023-02-15T10:53:18;9.40;92.80
18388;DHT22;9320;50.256;19.026;2023-02-15T10:55:54;9.30;92.00
18388;DHT22;9320;50.256;19.026;2023-02-15T10:58:38;8.90;91.90
18388;DHT22;9320;50.256;19.026;2023-02-15T11:01:16;8.90;91.90
18388;DHT22;9320;50.256;19.026;2023-02-15T11:04:19;8.80;92.00
18388;DHT22;9320;50.256;19.026;2023-02-15T11:06:59;9.10;92.00
18388;DHT22;9320;50.256;19.026;2023-02-15T11:09:36;9.20;90.90
18388;DHT22;9320;50.256;19.026;2023-02-15T11:12:12;9.20;91.00
18388;DHT22;9320;50.256;19.026;2023-02-15T11:14:46;9.30;90.60
18388;DHT22;9320;50.256;19.026;2023-02-15T11:17:19;9.30;90.10
18388;DHT22;9320;50.256;19.026;2023-02-15T11:19:57;9.50;90.00
18388;DHT22;9320;50.256;19.026;2023-02-15T11:22:28;9.70;89.50
18388;DHT22;9320;50.256;19.026;2023-02-15T11:25:00;9.80;88.40
18388;DHT22;9320;50.256;19.026;2023-02-15T11:27:31;9.90;87.70
18388;DHT22;9320;50.256;19.026;2023-02-15T11:30:04;9.90;87.50
18388;DHT22;9320;50.256;19.026;2023-02-15T11:32:39;9.90;87.40
18388;DHT22;9320;50.256;19.026;2023-02-15T11:35:21;10.00;87.50
18388;DHT22;9320;50.256;19.026;2023-02-15T11:37:54;10.00;86.50
18388;DHT22;9320;50.256;19.026;2023-02-15T11:40:28;10.00;86.50
18388;DHT22;9320;50.256;19.026;2023-02-15T11:43:00;9.80;87.30
18388;DHT22;9320;50.256;19.026;2023-02-15T11:45:32;9.70;87.10
18388;DHT22;9320;50.256;19.026;2023-02-15T11:48:05;9.80;86.50
18388;DHT22;9320;50.256;19.026;2023-02-15T11:50:36;9.70;87.30
18388;DHT22;9320;50.256;19.026;2023-02-15T11:53:10;9.80;87.20
18388;DHT22;9320;50.256;19.026;2023-02-15T11:55:42;9.90;86.50
18388;DHT22;9320;50.256;19.026;2023-02-15T11:58:19;10.00;86.30
18388;DHT22;9320;50.256;19.026;2023-02-15T12:00:56;9.90;85.40
18388;DHT22;9320;50.256;19.026;2023-02-15T12:03:39;9.80;86.40
18388;DHT22;9320;50.256;19.026;2023-02-15T12:06:18;9.70;85.70
18388;DHT22;9320;50.256;19.026;2023-02-15T12:08:55;9.60;86.20
18388;DHT22;9320;50.256;19.026;2023-02-15T12:11:31;9.60;86.40
18388;DHT22;9320;50.256;19.026;2023-02-15T12:14:03;9.70;86.50
18388;DHT22;9320;50.256;19.026;2023-02-15T12:16:41;9.70;86.50
18388;DHT22;9320;50.256;19.026;2023-02-15T12:19:28;9.80;86.50
18388;DHT22;9320;50.256;19.026;2023-02-15T12:21:58;9.90;85.70
18388;DHT22;9320;50.256;19.026;2023-02-15T12:24:29;9.90;85.80
18388;DHT22;9320;50.256;19.026;2023-02-15T12:27:02;9.90;85.90
18388;DHT22;9320;50.256;19.026;2023-02-15T12:29:35;10.00;84.40
18388;DHT22;9320;50.256;19.026;2023-02-15T12:32:15;10.00;84.70
18388;DHT22;9320;50.256;19.026;2023-02-15T12:34:45;10.00;84.20
18388;DHT22;9320;50.256;19.026;2023-02-15T12:37:17;10.00;83.60
18388;DHT22;9320;50.256;19.026;2023-02-15T12:39:56;10.00;84.20
18388;DHT22;9320;50.256;19.026;2023-02-15T12:42:26;10.00;84.00
18388;DHT22;9320;50.256;19.026;2023-02-15T12:44:58;10.00;84.30
18388;DHT22;9320;50.256;19.026;2023-02-15T12:47:29;10.00;83.60
18388;DHT22;9320;50.256;19.026;2023-02-15T12:50:08;10.10;83.10
18388;DHT22;9320;50.256;19.026;2023-02-15T12:52:45;10.20;83.10
18388;DHT22;9320;50.256;19.026;2023-02-15T12:55:21;10.20;82.30
18388;DHT22;9320;50.256;19.026;2023-02-15T12:58:05;10.10;82.80
18388;DHT22;9320;50.256;19.026;2023-02-15T13:00:34;10.20;83.40
18388;DHT22;9320;50.256;19.026;2023-02-15T13:03:03;10.30;83.60
18388;DHT22;9320;50.256;19.026;2023-02-15T13:05:35;10.30;81.80
18388;DHT22;9320;50.256;19.026;2023-02-15T13:08:13;10.10;82.60
18388;DHT22;9320;50.256;19.026;2023-02-15T13:10:53;10.20;82.60
18388;DHT22;9320;50.256;19.026;2023-02-15T13:13:24;10.40;82.30
18388;DHT22;9320;50.256;19.026;2023-02-15T13:15:56;10.40;82.60
18388;DHT22;9320;50.256;19.026;2023-02-15T13:18:31;10.40;83.10
18388;DHT22;9320;50.256;19.026;2023-02-15T13:21:05;10.50;82.20
18388;DHT22;9320;50.256;19.026;2023-02-15T13:23:34;10.50;81.60
18388;DHT22;9320;50.256;19.026;2023-02-15T13:26:04;10.40;80.80
18388;DHT22;9320;50.256;19.026;2023-02-15T13:28:39;10.40;81.50
18388;DHT22;9320;50.256;19.026;2023-02-15T13:31:12;10.40;82.10
18388;DHT22;9320;50.256;19.026;2023-02-15T13:33:47;10.40;81.90
18388;DHT22;9320;50.256;19.026;2023-02-15T13:36:23;10.60;81.60
18388;DHT22;9320;50.256;19.026;2023-02-15T13:39:02;10.50;81.30
18388;DHT22;9320;50.256;19.026;2023-02-15T13:41:33;10.50;80.80
18388;DHT22;9320;50.256;19.026;2023-02-15T13:44:15;10.40;81.10
18388;DHT22;9320;50.256;19.026;2023-02-15T13:46:54;10.40;81.70
18388;DHT22;9320;50.256;19.026;2023-02-15T13:49:39;10.40;81.40
18388;DHT22;9320;50.256;19.026;2023-02-15T13:52:18;10.40;81.70
18388;DHT22;9320;50.256;19.026;2023-02-15T13:54:57;10.40;80.60
18388;DHT22;9320;50.256;19.026;2023-02-15T13:57:40;10.40;80.70
18388;DHT22;9320;50.256;19.026;2023-02-15T14:00:16;10.40;80.30
18388;DHT22;9320;50.256;19.026;2023-02-15T14:03:13;10.50;80.50
18388;DHT22;9320;50.256;19.026;2023-02-15T14:06:12;10.40;80.60
18388;DHT22;9320;50.256;19.026;2023-02-15T14:08:49;10.40;80.80
18388;DHT22;9320;50.256;19.026;2023-02-15T14:11:29;10.40;80.20
18388;DHT22;9320;50.256;19.026;2023-02-15T14:14:15;10.30;80.40
18388;DHT22;9320;50.256;19.026;2023-02-15T14:16:54;10.30;81.00
18388;DHT22;9320;50.256;19.026;2023-02-15T14:19:39;10.40;81.00
18388;DHT22;9320;50.256;19.026;2023-02-15T14:22:18;10.50;80.90
18388;DHT22;9320;50.256;19.026;2023-02-15T14:24:59;10.40;80.10
18388;DHT22;9320;50.256;19.026;2023-02-15T14:27:43;10.50;79.70
18388;DHT22;9320;50.256;19.026;2023-02-15T14:30:17;10.40;80.20
18388;DHT22;9320;50.256;19.026;2023-02-15T14:32:48;10.40;80.10
18388;DHT22;9320;50.256;19.026;2023-02-15T14:35:19;10.40;80.10
18388;DHT22;9320;50.256;19.026;2023-02-15T14:37:54;10.40;80.60
18388;DHT22;9320;50.256;19.026;2023-02-15T14:40:33;10.40;80.70
18388;DHT22;9320;50.256;19.026;2023-02-15T14:43:27;10.50;80.60
18388;DHT22;9320;50.256;19.026;2023-02-15T14:46:03;10.50;79.90
18388;DHT22;9320;50.256;19.026;2023-02-15T14:48:41;10.40;79.10
18388;DHT22;9320;50.256;19.026;2023-02-15T14:51:10;10.40;78.50
18388;DHT22;9320;50.256;19.026;2023-02-15T14:53:40;10.40;78.30
18388;DHT22;9320;50.256;19.026;2023-02-15T14:56:21;10.40;77.70
18388;DHT22;9320;50.256;19.026;2023-02-15T15:01:41;10.30;77.40
18388;DHT22;9320;50.256;19.026;2023-02-15T15:04:14;10.30;77.70
18388;DHT22;9320;50.256;19.026;2023-02-15T15:06:59;10.30;77.60
18388;DHT22;9320;50.256;19.026;2023-02-15T15:09:30;10.30;77.80
18388;DHT22;9320;50.256;19.026;2023-02-15T15:14:58;10.10;77.90
18388;DHT22;9320;50.256;19.026;2023-02-15T15:17:52;10.10;78.10
18388;DHT22;9320;50.256;19.026;2023-02-15T15:20:46;10.10;78.30
18388;DHT22;9320;50.256;19.026;2023-02-15T15:23:43;10.00;78.60
18388;DHT22;9320;50.256;19.026;2023-02-15T15:26:28;10.10;78.70
18388;DHT22;9320;50.256;19.026;2023-02-15T15:29:01;10.00;78.90
18388;DHT22;9320;50.256;19.026;2023-02-15T15:31:43;10.00;79.10
18388;DHT22;9320;50.256;19.026;2023-02-15T15:34:27;9.90;79.30
18388;DHT22;9320;50.256;19.026;2023-02-15T15:37:28;9.90;80.10
18388;DHT22;9320;50.256;19.026;2023-02-15T15:46:40;9.60;81.60
18388;DHT22;9320;50.256;19.026;2023-02-15T15:49:12;9.60;82.00
18388;DHT22;9320;50.256;19.026;2023-02-15T15:51:42;9.60;82.10
18388;DHT22;9320;50.256;19.026;2023-02-15T15:54:15;9.50;82.70
18388;DHT22;9320;50.256;19.026;2023-02-15T15:56:47;9.40;82.70
18388;DHT22;9320;50.256;19.026;2023-02-15T15:59:19;9.30;83.50
18388;DHT22;9320;50.256;19.026;2023-02-15T16:01:50;9.20;83.80
18388;DHT22;9320;50.256;19.026;2023-02-15T16:04:26;9.10;83.80
18388;DHT22;9320;50.256;19.026;2023-02-15T16:06:56;9.10;83.90
18388;DHT22;9320;50.256;19.026;2023-02-15T16:09:26;9.00;84.20
18388;DHT22;9320;50.256;19.026;2023-02-15T16:11:55;9.00;84.10
18388;DHT22;9320;50.256;19.026;2023-02-15T16:14:30;9.00;84.50
18388;DHT22;9320;50.256;19.026;2023-02-15T16:17:02;9.00;85.00
18388;DHT22;9320;50.256;19.026;2023-02-15T16:19:33;8.90;85.20
18388;DHT22;9320;50.256;19.026;2023-02-15T16:22:03;8.90;85.30
18388;DHT22;9320;50.256;19.026;2023-02-15T16:24:40;8.80;85.50
18388;DHT22;9320;50.256;19.026;2023-02-15T16:27:21;8.80;85.70
18388;DHT22;9320;50.256;19.026;2023-02-15T16:29:51;8.80;85.80
18388;DHT22;9320;50.256;19.026;2023-02-15T16:32:21;8.70;86.10
18388;DHT22;9320;50.256;19.026;2023-02-15T16:34:52;8.60;86.70
18388;DHT22;9320;50.256;19.026;2023-02-15T16:37:23;8.50;87.20
18388;DHT22;9320;50.256;19.026;2023-02-15T16:39:54;8.50;87.60
18388;DHT22;9320;50.256;19.026;2023-02-15T16:42:23;8.50;87.70
18388;DHT22;9320;50.256;19.026;2023-02-15T16:44:54;8.50;87.70